sensor_id;sensor_type;location;lat;lon;timestamp;P1;durP1;ratioP1;P2;durP2;ratioP2
72573;SDS011;60603;52.548;13.420;2024-01-11T00:01:08;19.50;;;7.32;;
72573;SDS011;60603;52.548;13.420;2024-01-11T00:03:39;18.98;;;8.00;;
72573;SDS011;60603;52.548;13.420;2024-01-11T00:06:05;19.27;;;8.15;;
72573;SDS011;60603;52.548;13.420;2024-01-11T00:08:32;16.48;;;7.70;;
72573;SDS011;60603;52.548;13.420;2024-01-11T00:11:00;13.75;;;5.90;;
72573;SDS011;60603;52.548;13.420;2024-01-11T00:13:26;14.95;;;6.43;;
72573;SDS011;60603;52.548;13.420;2024-01-11T00:15:53;17.58;;;6.65;;
72573;SDS011;60603;52.548;13.420;2024-01-11T00:18:20;15.07;;;6.63;;
72573;SDS011;60603;52.548;13.420;2024-01-11T00:20:47;14.02;;;5.45;;
72573;SDS011;60603;52.548;13.420;2024-01-11T00:23:14;14.48;;;5.47;;
72573;SDS011;60603;52.548;13.420;2024-01-11T00:25:41;14.52;;;4.40;;
72573;SDS011;60603;52.548;13.420;2024-01-11T00:28:08;14.13;;;5.10;;
72573;SDS011;60603;52.548;13.420;2024-01-11T00:30:35;12.68;;;5.43;;
72573;SDS011;60603;52.548;13.420;2024-01-11T00:33:01;13.75;;;4.97;;
72573;SDS011;60603;52.548;13.420;2024-01-11T00:35:29;14.73;;;5.80;;
72573;SDS011;60603;52.548;13.420;2024-01-11T00:37:56;10.63;;;4.63;;
72573;SDS011;60603;52.548;13.420;2024-01-11T00:40:23;17.55;;;5.57;;
72573;SDS011;60603;52.548;13.420;2024-01-11T00:42:50;15.48;;;5.90;;
72573;SDS011;60603;52.548;13.420;2024-01-11T00:45:17;16.15;;;5.03;;
72573;SDS011;60603;52.548;13.420;2024-01-11T00:47:44;12.25;;;4.88;;
72573;SDS011;60603;52.548;13.420;2024-01-11T00:50:11;11.75;;;4.60;;
72573;SDS011;60603;52.548;13.420;2024-01-11T00:52:38;10.98;;;4.20;;
72573;SDS011;60603;52.548;13.420;2024-01-11T00:55:05;11.73;;;4.20;;
72573;SDS011;60603;52.548;13.420;2024-01-11T00:57:41;15.57;;;6.20;;
72573;SDS011;60603;52.548;13.420;2024-01-11T01:00:09;9.27;;;3.92;;
72573;SDS011;60603;52.548;13.420;2024-01-11T01:02:40;12.13;;;4.32;;
72573;SDS011;60603;52.548;13.420;2024-01-11T01:05:07;16.30;;;5.03;;
72573;SDS011;60603;52.548;13.420;2024-01-11T01:07:34;10.05;;;4.15;;
72573;SDS011;60603;52.548;13.420;2024-01-11T01:10:01;12.25;;;4.53;;
72573;SDS011;60603;52.548;13.420;2024-01-11T01:12:28;9.18;;;4.43;;
72573;SDS011;60603;52.548;13.420;2024-01-11T01:14:55;13.85;;;5.28;;
72573;SDS011;60603;52.548;13.420;2024-01-11T01:17:22;15.65;;;5.03;;
72573;SDS011;60603;52.548;13.420;2024-01-11T01:19:49;13.65;;;5.03;;
72573;SDS011;60603;52.548;13.420;2024-01-11T01:22:16;10.60;;;4.38;;
72573;SDS011;60603;52.548;13.420;2024-01-11T01:24:43;15.27;;;5.38;;
72573;SDS011;60603;52.548;13.420;2024-01-11T01:27:10;10.88;;;4.50;;
72573;SDS011;60603;52.548;13.420;2024-01-11T01:29:42;12.88;;;5.18;;
72573;SDS011;60603;52.548;13.420;2024-01-11T01:32:08;17.58;;;4.90;;
72573;SDS011;60603;52.548;13.420;2024-01-11T01:34:36;12.80;;;5.20;;
72573;SDS011;60603;52.548;13.420;2024-01-11T01:37:02;9.48;;;4.65;;
72573;SDS011;60603;52.548;13.420;2024-01-11T01:39:29;13.52;;;4.97;;
72573;SDS011;60603;52.548;13.420;2024-01-11T01:41:56;11.68;;;4.85;;
72573;SDS011;60603;52.548;13.420;2024-01-11T01:44:23;12.05;;;4.57;;
72573;SDS011;60603;52.548;13.420;2024-01-11T01:46:51;15.25;;;5.85;;
72573;SDS011;60603;52.548;13.420;2024-01-11T01:49:18;15.50;;;5.97;;
72573;SDS011;60603;52.548;13.420;2024-01-11T01:51:48;19.17;;;6.45;;
72573;SDS011;60603;52.548;13.420;2024-01-11T01:54:16;15.68;;;6.35;;
72573;SDS011;60603;52.548;13.420;2024-01-11T01:56:44;16.15;;;6.50;;
72573;SDS011;60603;52.548;13.420;2024-01-11T01:59:11;15.85;;;6.32;;
72573;SDS011;60603;52.548;13.420;2024-01-11T02:01:39;20.65;;;6.40;;
72573;SDS011;60603;52.548;13.420;2024-01-11T02:04:06;14.60;;;5.20;;
72573;SDS011;60603;52.548;13.420;2024-01-11T02:06:33;14.20;;;5.28;;
72573;SDS011;60603;52.548;13.420;2024-01-11T02:09:01;21.85;;;6.10;;
72573;SDS011;60603;52.548;13.420;2024-01-11T02:11:31;17.88;;;6.47;;
72573;SDS011;60603;52.548;13.420;2024-01-11T02:13:58;18.77;;;5.85;;
72573;SDS011;60603;52.548;13.420;2024-01-11T02:16:24;22.20;;;6.45;;
72573;SDS011;60603;52.548;13.420;2024-01-11T02:18:51;20.23;;;6.03;;
72573;SDS011;60603;52.548;13.420;2024-01-11T02:21:18;18.75;;;6.18;;
72573;SDS011;60603;52.548;13.420;2024-01-11T02:24:20;14.63;;;5.53;;
72573;SDS011;60603;52.548;13.420;2024-01-11T02:27:13;17.90;;;6.20;;
72573;SDS011;60603;52.548;13.420;2024-01-11T02:29:32;16.23;;;6.50;;
72573;SDS011;60603;52.548;13.420;2024-01-11T02:32:00;13.35;;;5.82;;
72573;SDS011;60603;52.548;13.420;2024-01-11T02:34:29;16.92;;;5.50;;
72573;SDS011;60603;52.548;13.420;2024-01-11T02:36:56;16.80;;;5.63;;
72573;SDS011;60603;52.548;13.420;2024-01-11T02:39:24;11.05;;;5.28;;
72573;SDS011;60603;52.548;13.420;2024-01-11T02:41:51;15.80;;;5.78;;
72573;SDS011;60603;52.548;13.420;2024-01-11T02:44:19;16.30;;;5.78;;
72573;SDS011;60603;52.548;13.420;2024-01-11T02:46:46;12.02;;;4.80;;
72573;SDS011;60603;52.548;13.420;2024-01-11T02:49:13;15.75;;;5.68;;
72573;SDS011;60603;52.548;13.420;2024-01-11T02:51:40;20.60;;;6.70;;
72573;SDS011;60603;52.548;13.420;2024-01-11T02:54:07;22.48;;;6.57;;
72573;SDS011;60603;52.548;13.420;2024-01-11T02:56:34;19.35;;;5.28;;
72573;SDS011;60603;52.548;13.420;2024-01-11T02:59:01;16.67;;;5.75;;
72573;SDS011;60603;52.548;13.420;2024-01-11T03:01:27;15.00;;;5.03;;
72573;SDS011;60603;52.548;13.420;2024-01-11T03:03:54;14.90;;;5.60;;
72573;SDS011;60603;52.548;13.420;2024-01-11T03:06:22;13.70;;;5.28;;
72573;SDS011;60603;52.548;13.420;2024-01-11T03:08:50;13.70;;;5.82;;
72573;SDS011;60603;52.548;13.420;2024-01-11T03:11:16;12.98;;;5.68;;
72573;SDS011;60603;52.548;13.420;2024-01-11T03:13:44;11.50;;;4.32;;
72573;SDS011;60603;52.548;13.420;2024-01-11T03:16:12;11.75;;;4.32;;
72573;SDS011;60603;52.548;13.420;2024-01-11T03:18:40;14.98;;;5.93;;
72573;SDS011;60603;52.548;13.420;2024-01-11T03:21:07;16.95;;;6.55;;
72573;SDS011;60603;52.548;13.420;2024-01-11T03:23:34;17.33;;;5.43;;
72573;SDS011;60603;52.548;13.420;2024-01-11T03:26:01;19.85;;;7.07;;
72573;SDS011;60603;52.548;13.420;2024-01-11T03:28:28;16.05;;;6.07;;
72573;SDS011;60603;52.548;13.420;2024-01-11T03:30:56;19.58;;;7.25;;
72573;SDS011;60603;52.548;13.420;2024-01-11T03:33:23;15.70;;;5.30;;
72573;SDS011;60603;52.548;13.420;2024-01-11T03:35:50;15.88;;;5.75;;
72573;SDS011;60603;52.548;13.420;2024-01-11T03:38:17;16.92;;;6.60;;
72573;SDS011;60603;52.548;13.420;2024-01-11T03:40:44;17.90;;;6.45;;
72573;SDS011;60603;52.548;13.420;2024-01-11T03:43:11;14.80;;;5.70;;
72573;SDS011;60603;52.548;13.420;2024-01-11T03:45:38;14.75;;;4.72;;
72573;SDS011;60603;52.548;13.420;2024-01-11T03:48:04;14.10;;;5.72;;
72573;SDS011;60603;52.548;13.420;2024-01-11T03:50:32;14.48;;;5.95;;
72573;SDS011;60603;52.548;13.420;2024-01-11T03:52:59;18.08;;;5.65;;
72573;SDS011;60603;52.548;13.420;2024-01-11T03:55:26;14.60;;;4.95;;
72573;SDS011;60603;52.548;13.420;2024-01-11T03:57:52;17.58;;;5.65;;
72573;SDS011;60603;52.548;13.420;2024-01-11T04:00:19;18.85;;;5.78;;
72573;SDS011;60603;52.548;13.420;2024-01-11T04:02:46;14.48;;;5.25;;
72573;SDS011;60603;52.548;13.420;2024-01-11T04:05:13;13.10;;;4.93;;
72573;SDS011;60603;52.548;13.420;2024-01-11T04:07:42;12.95;;;5.53;;
72573;SDS011;60603;52.548;13.420;2024-01-11T04:10:09;15.90;;;5.25;;
72573;SDS011;60603;52.548;13.420;2024-01-11T04:12:36;13.82;;;5.03;;
72573;SDS011;60603;52.548;13.420;2024-01-11T04:15:04;15.65;;;4.57;;
72573;SDS011;60603;52.548;13.420;2024-01-11T04:17:31;18.90;;;5.57;;
72573;SDS011;60603;52.548;13.420;2024-01-11T04:19:58;14.27;;;5.32;;
72573;SDS011;60603;52.548;13.420;2024-01-11T04:22:27;18.15;;;4.70;;
72573;SDS011;60603;52.548;13.420;2024-01-11T04:24:54;13.82;;;4.15;;
72573;SDS011;60603;52.548;13.420;2024-01-11T04:27:21;14.98;;;5.45;;
72573;SDS011;60603;52.548;13.420;2024-01-11T04:29:48;16.20;;;5.70;;
72573;SDS011;60603;52.548;13.420;2024-01-11T04:32:15;16.38;;;6.32;;
72573;SDS011;60603;52.548;13.420;2024-01-11T04:34:42;17.08;;;6.35;;
72573;SDS011;60603;52.548;13.420;2024-01-11T04:37:09;15.30;;;5.93;;
72573;SDS011;60603;52.548;13.420;2024-01-11T04:39:36;22.27;;;6.45;;
72573;SDS011;60603;52.548;13.420;2024-01-11T04:42:03;21.05;;;6.57;;
72573;SDS011;60603;52.548;13.420;2024-01-11T04:44:30;18.08;;;6.57;;
72573;SDS011;60603;52.548;13.420;2024-01-11T04:46:56;17.88;;;6.28;;
72573;SDS011;60603;52.548;13.420;2024-01-11T04:49:23;19.77;;;5.78;;
72573;SDS011;60603;52.548;13.420;2024-01-11T04:51:50;14.43;;;4.90;;
72573;SDS011;60603;52.548;13.420;2024-01-11T04:54:17;19.15;;;4.93;;
72573;SDS011;60603;52.548;13.420;2024-01-11T04:56:44;26.63;;;6.65;;
72573;SDS011;60603;52.548;13.420;2024-01-11T04:59:11;17.02;;;6.07;;
72573;SDS011;60603;52.548;13.420;2024-01-11T05:01:38;17.80;;;6.25;;
72573;SDS011;60603;52.548;13.420;2024-01-11T05:04:06;18.17;;;6.40;;
72573;SDS011;60603;52.548;13.420;2024-01-11T05:06:33;20.83;;;6.00;;
72573;SDS011;60603;52.548;13.420;2024-01-11T05:09:00;17.45;;;6.47;;
72573;SDS011;60603;52.548;13.420;2024-01-11T05:11:26;18.42;;;5.70;;
72573;SDS011;60603;52.548;13.420;2024-01-11T05:13:54;18.40;;;6.47;;
72573;SDS011;60603;52.548;13.420;2024-01-11T05:16:21;22.20;;;6.57;;
72573;SDS011;60603;52.548;13.420;2024-01-11T05:18:53;19.73;;;6.65;;
72573;SDS011;60603;52.548;13.420;2024-01-11T05:21:23;18.40;;;7.22;;
72573;SDS011;60603;52.548;13.420;2024-01-11T05:23:51;15.18;;;6.05;;
72573;SDS011;60603;52.548;13.420;2024-01-11T05:26:19;22.25;;;6.60;;
72573;SDS011;60603;52.548;13.420;2024-01-11T05:28:47;27.33;;;8.13;;
72573;SDS011;60603;52.548;13.420;2024-01-11T05:31:14;17.90;;;5.95;;
72573;SDS011;60603;52.548;13.420;2024-01-11T05:33:42;21.40;;;6.78;;
72573;SDS011;60603;52.548;13.420;2024-01-11T05:36:10;21.30;;;5.97;;
72573;SDS011;60603;52.548;13.420;2024-01-11T05:38:38;19.58;;;6.65;;
72573;SDS011;60603;52.548;13.420;2024-01-11T05:41:06;23.95;;;7.88;;
72573;SDS011;60603;52.548;13.420;2024-01-11T05:43:34;18.25;;;6.78;;
72573;SDS011;60603;52.548;13.420;2024-01-11T05:46:01;26.90;;;9.27;;
72573;SDS011;60603;52.548;13.420;2024-01-11T05:48:28;23.23;;;6.47;;
72573;SDS011;60603;52.548;13.420;2024-01-11T05:50:55;20.58;;;7.60;;
72573;SDS011;60603;52.548;13.420;2024-01-11T05:53:22;23.10;;;7.93;;
72573;SDS011;60603;52.548;13.420;2024-01-11T05:55:49;22.00;;;7.15;;
72573;SDS011;60603;52.548;13.420;2024-01-11T05:58:19;21.27;;;7.20;;
72573;SDS011;60603;52.548;13.420;2024-01-11T06:00:46;21.25;;;7.22;;
72573;SDS011;60603;52.548;13.420;2024-01-11T06:03:13;22.63;;;7.57;;
72573;SDS011;60603;52.548;13.420;2024-01-11T06:05:40;21.88;;;6.90;;
72573;SDS011;60603;52.548;13.420;2024-01-11T06:08:07;24.10;;;8.20;;
72573;SDS011;60603;52.548;13.420;2024-01-11T06:10:34;24.92;;;8.05;;
72573;SDS011;60603;52.548;13.420;2024-01-11T06:13:01;22.23;;;7.97;;
72573;SDS011;60603;52.548;13.420;2024-01-11T06:15:28;23.48;;;7.07;;
72573;SDS011;60603;52.548;13.420;2024-01-11T06:17:55;23.38;;;7.68;;
72573;SDS011;60603;52.548;13.420;2024-01-11T06:20:22;24.95;;;8.98;;
72573;SDS011;60603;52.548;13.420;2024-01-11T06:22:49;23.73;;;7.90;;
72573;SDS011;60603;52.548;13.420;2024-01-11T06:25:16;24.23;;;8.35;;
72573;SDS011;60603;52.548;13.420;2024-01-11T06:27:43;25.25;;;7.18;;
72573;SDS011;60603;52.548;13.420;2024-01-11T06:30:10;23.30;;;7.38;;
72573;SDS011;60603;52.548;13.420;2024-01-11T06:32:38;35.03;;;10.32;;
72573;SDS011;60603;52.548;13.420;2024-01-11T06:35:05;24.55;;;9.02;;
72573;SDS011;60603;52.548;13.420;2024-01-11T06:37:32;30.75;;;9.65;;
72573;SDS011;60603;52.548;13.420;2024-01-11T06:40:00;26.92;;;8.85;;
72573;SDS011;60603;52.548;13.420;2024-01-11T06:42:27;25.85;;;7.50;;
72573;SDS011;60603;52.548;13.420;2024-01-11T06:44:54;23.23;;;7.88;;
72573;SDS011;60603;52.548;13.420;2024-01-11T06:47:21;25.05;;;8.55;;
72573;SDS011;60603;52.548;13.420;2024-01-11T06:49:48;25.10;;;8.20;;
72573;SDS011;60603;52.548;13.420;2024-01-11T06:52:15;24.15;;;8.98;;
72573;SDS011;60603;52.548;13.420;2024-01-11T06:54:42;31.05;;;8.88;;
72573;SDS011;60603;52.548;13.420;2024-01-11T06:57:09;29.33;;;10.32;;
72573;SDS011;60603;52.548;13.420;2024-01-11T06:59:36;32.20;;;11.35;;
72573;SDS011;60603;52.548;13.420;2024-01-11T07:02:03;25.67;;;8.35;;
72573;SDS011;60603;52.548;13.420;2024-01-11T07:04:30;24.55;;;9.38;;
72573;SDS011;60603;52.548;13.420;2024-01-11T07:07:00;30.98;;;10.13;;
72573;SDS011;60603;52.548;13.420;2024-01-11T07:09:27;32.42;;;10.00;;
72573;SDS011;60603;52.548;13.420;2024-01-11T07:11:54;28.95;;;9.73;;
72573;SDS011;60603;52.548;13.420;2024-01-11T07:14:21;35.08;;;10.23;;
72573;SDS011;60603;52.548;13.420;2024-01-11T07:16:48;29.20;;;9.90;;
72573;SDS011;60603;52.548;13.420;2024-01-11T07:19:15;27.83;;;9.45;;
72573;SDS011;60603;52.548;13.420;2024-01-11T07:21:42;31.35;;;9.75;;
72573;SDS011;60603;52.548;13.420;2024-01-11T07:24:09;32.80;;;10.45;;
72573;SDS011;60603;52.548;13.420;2024-01-11T07:26:36;28.52;;;9.43;;
72573;SDS011;60603;52.548;13.420;2024-01-11T07:29:03;31.40;;;10.45;;
72573;SDS011;60603;52.548;13.420;2024-01-11T07:31:30;28.20;;;9.38;;
72573;SDS011;60603;52.548;13.420;2024-01-11T07:33:57;25.83;;;9.43;;
72573;SDS011;60603;52.548;13.420;2024-01-11T07:36:24;35.10;;;9.35;;
72573;SDS011;60603;52.548;13.420;2024-01-11T07:38:51;28.33;;;9.15;;
72573;SDS011;60603;52.548;13.420;2024-01-11T07:41:18;33.80;;;10.02;;
72573;SDS011;60603;52.548;13.420;2024-01-11T07:43:45;28.20;;;8.52;;
72573;SDS011;60603;52.548;13.420;2024-01-11T07:46:20;38.17;;;10.05;;
72573;SDS011;60603;52.548;13.420;2024-01-11T07:49:02;28.83;;;9.85;;
72573;SDS011;60603;52.548;13.420;2024-01-11T07:51:30;33.08;;;10.32;;
72573;SDS011;60603;52.548;13.420;2024-01-11T07:53:57;30.63;;;10.52;;
72573;SDS011;60603;52.548;13.420;2024-01-11T07:56:24;32.17;;;10.18;;
72573;SDS011;60603;52.548;13.420;2024-01-11T07:58:50;31.55;;;10.30;;
72573;SDS011;60603;52.548;13.420;2024-01-11T08:01:17;27.75;;;9.77;;
72573;SDS011;60603;52.548;13.420;2024-01-11T08:03:44;28.70;;;9.43;;
72573;SDS011;60603;52.548;13.420;2024-01-11T08:06:12;30.13;;;9.68;;
72573;SDS011;60603;52.548;13.420;2024-01-11T08:08:39;31.23;;;10.43;;
72573;SDS011;60603;52.548;13.420;2024-01-11T08:11:07;30.98;;;11.00;;
72573;SDS011;60603;52.548;13.420;2024-01-11T08:13:34;31.95;;;9.75;;
72573;SDS011;60603;52.548;13.420;2024-01-11T08:16:01;33.47;;;9.40;;
72573;SDS011;60603;52.548;13.420;2024-01-11T08:18:33;31.80;;;11.20;;
72573;SDS011;60603;52.548;13.420;2024-01-11T08:21:01;28.50;;;9.75;;
72573;SDS011;60603;52.548;13.420;2024-01-11T08:23:27;27.40;;;9.80;;
72573;SDS011;60603;52.548;13.420;2024-01-11T08:25:54;27.98;;;9.55;;
72573;SDS011;60603;52.548;13.420;2024-01-11T08:28:21;37.10;;;12.88;;
72573;SDS011;60603;52.548;13.420;2024-01-11T08:30:49;31.00;;;9.55;;
72573;SDS011;60603;52.548;13.420;2024-01-11T08:33:15;35.15;;;11.52;;
72573;SDS011;60603;52.548;13.420;2024-01-11T08:35:43;30.48;;;9.25;;
72573;SDS011;60603;52.548;13.420;2024-01-11T08:38:10;34.38;;;12.25;;
72573;SDS011;60603;52.548;13.420;2024-01-11T08:40:37;29.70;;;9.65;;
72573;SDS011;60603;52.548;13.420;2024-01-11T08:43:04;25.17;;;9.23;;
72573;SDS011;60603;52.548;13.420;2024-01-11T08:45:33;35.30;;;11.25;;
72573;SDS011;60603;52.548;13.420;2024-01-11T08:47:59;26.75;;;9.48;;
72573;SDS011;60603;52.548;13.420;2024-01-11T08:50:27;24.45;;;9.13;;
72573;SDS011;60603;52.548;13.420;2024-01-11T08:52:55;30.77;;;10.10;;
72573;SDS011;60603;52.548;13.420;2024-01-11T08:55:23;31.73;;;11.02;;
72573;SDS011;60603;52.548;13.420;2024-01-11T08:57:50;26.80;;;10.07;;
72573;SDS011;60603;52.548;13.420;2024-01-11T09:00:17;31.92;;;10.27;;
72573;SDS011;60603;52.548;13.420;2024-01-11T09:02:45;28.45;;;9.88;;
72573;SDS011;60603;52.548;13.420;2024-01-11T09:05:15;33.28;;;9.73;;
72573;SDS011;60603;52.548;13.420;2024-01-11T09:07:42;31.73;;;10.55;;
72573;SDS011;60603;52.548;13.420;2024-01-11T09:10:10;30.30;;;10.15;;
72573;SDS011;60603;52.548;13.420;2024-01-11T09:12:39;31.63;;;10.25;;
72573;SDS011;60603;52.548;13.420;2024-01-11T09:15:06;30.85;;;10.93;;
72573;SDS011;60603;52.548;13.420;2024-01-11T09:17:34;33.78;;;10.45;;
72573;SDS011;60603;52.548;13.420;2024-01-11T09:20:01;30.23;;;12.13;;
72573;SDS011;60603;52.548;13.420;2024-01-11T09:22:27;32.63;;;11.98;;
72573;SDS011;60603;52.548;13.420;2024-01-11T09:24:55;31.40;;;9.30;;
72573;SDS011;60603;52.548;13.420;2024-01-11T09:27:21;26.35;;;8.90;;
72573;SDS011;60603;52.548;13.420;2024-01-11T09:29:49;30.73;;;10.93;;
72573;SDS011;60603;52.548;13.420;2024-01-11T09:32:22;30.77;;;9.98;;
72573;SDS011;60603;52.548;13.420;2024-01-11T09:34:49;31.95;;;11.20;;
72573;SDS011;60603;52.548;13.420;2024-01-11T09:37:17;30.55;;;10.85;;
72573;SDS011;60603;52.548;13.420;2024-01-11T09:39:44;31.35;;;10.95;;
72573;SDS011;60603;52.548;13.420;2024-01-11T09:42:11;24.63;;;9.57;;
72573;SDS011;60603;52.548;13.420;2024-01-11T09:44:38;30.30;;;10.77;;
72573;SDS011;60603;52.548;13.420;2024-01-11T09:47:06;30.73;;;11.40;;
72573;SDS011;60603;52.548;13.420;2024-01-11T09:49:38;28.92;;;10.25;;
72573;SDS011;60603;52.548;13.420;2024-01-11T09:52:05;36.00;;;10.20;;
72573;SDS011;60603;52.548;13.420;2024-01-11T09:54:35;37.83;;;12.60;;
72573;SDS011;60603;52.548;13.420;2024-01-11T09:57:02;30.23;;;11.82;;
72573;SDS011;60603;52.548;13.420;2024-01-11T09:59:30;29.10;;;11.00;;
72573;SDS011;60603;52.548;13.420;2024-01-11T10:01:57;33.78;;;11.52;;
72573;SDS011;60603;52.548;13.420;2024-01-11T10:04:24;33.58;;;12.07;;
72573;SDS011;60603;52.548;13.420;2024-01-11T10:06:52;33.72;;;10.15;;
72573;SDS011;60603;52.548;13.420;2024-01-11T10:09:20;33.03;;;11.73;;
72573;SDS011;60603;52.548;13.420;2024-01-11T10:11:50;29.92;;;10.50;;
72573;SDS011;60603;52.548;13.420;2024-01-11T10:14:20;28.95;;;11.15;;
72573;SDS011;60603;52.548;13.420;2024-01-11T10:16:47;24.85;;;10.00;;
72573;SDS011;60603;52.548;13.420;2024-01-11T10:19:15;36.88;;;11.80;;
72573;SDS011;60603;52.548;13.420;2024-01-11T10:21:43;28.90;;;9.77;;
72573;SDS011;60603;52.548;13.420;2024-01-11T10:24:14;28.17;;;11.00;;
72573;SDS011;60603;52.548;13.420;2024-01-11T10:26:44;31.85;;;10.63;;
72573;SDS011;60603;52.548;13.420;2024-01-11T10:29:11;30.77;;;10.23;;
72573;SDS011;60603;52.548;13.420;2024-01-11T10:31:40;31.50;;;11.38;;
72573;SDS011;60603;52.548;13.420;2024-01-11T10:34:07;30.08;;;9.88;;
72573;SDS011;60603;52.548;13.420;2024-01-11T10:36:35;25.20;;;9.90;;
72573;SDS011;60603;52.548;13.420;2024-01-11T10:39:02;25.75;;;8.90;;
72573;SDS011;60603;52.548;13.420;2024-01-11T10:41:38;25.60;;;10.07;;
72573;SDS011;60603;52.548;13.420;2024-01-11T10:44:12;28.63;;;11.07;;
72573;SDS011;60603;52.548;13.420;2024-01-11T10:46:49;24.70;;;9.13;;
72573;SDS011;60603;52.548;13.420;2024-01-11T10:49:18;22.45;;;9.25;;
72573;SDS011;60603;52.548;13.420;2024-01-11T10:51:49;25.38;;;8.95;;
72573;SDS011;60603;52.548;13.420;2024-01-11T10:54:21;22.10;;;8.02;;
72573;SDS011;60603;52.548;13.420;2024-01-11T10:56:48;23.77;;;8.85;;
72573;SDS011;60603;52.548;13.420;2024-01-11T10:59:16;25.70;;;9.55;;
72573;SDS011;60603;52.548;13.420;2024-01-11T11:01:45;25.67;;;8.70;;
72573;SDS011;60603;52.548;13.420;2024-01-11T11:04:13;21.05;;;8.52;;
72573;SDS011;60603;52.548;13.420;2024-01-11T11:06:41;19.92;;;8.23;;
72573;SDS011;60603;52.548;13.420;2024-01-11T11:09:10;24.40;;;9.40;;
72573;SDS011;60603;52.548;13.420;2024-01-11T11:11:39;25.77;;;9.85;;
72573;SDS011;60603;52.548;13.420;2024-01-11T11:14:06;25.73;;;9.88;;
72573;SDS011;60603;52.548;13.420;2024-01-11T11:16:34;23.55;;;9.68;;
72573;SDS011;60603;52.548;13.420;2024-01-11T11:19:01;21.95;;;8.43;;
72573;SDS011;60603;52.548;13.420;2024-01-11T11:21:29;21.63;;;8.70;;
72573;SDS011;60603;52.548;13.420;2024-01-11T11:23:56;21.50;;;8.18;;
72573;SDS011;60603;52.548;13.420;2024-01-11T11:26:25;22.92;;;9.52;;
72573;SDS011;60603;52.548;13.420;2024-01-11T11:28:53;25.50;;;8.75;;
72573;SDS011;60603;52.548;13.420;2024-01-11T11:31:41;23.05;;;9.48;;
72573;SDS011;60603;52.548;13.420;2024-01-11T11:34:13;23.98;;;8.55;;
72573;SDS011;60603;52.548;13.420;2024-01-11T11:36:44;23.98;;;9.00;;
72573;SDS011;60603;52.548;13.420;2024-01-11T11:39:13;23.05;;;8.93;;
72573;SDS011;60603;52.548;13.420;2024-01-11T11:41:41;25.10;;;9.88;;
72573;SDS011;60603;52.548;13.420;2024-01-11T11:44:11;25.67;;;9.27;;
72573;SDS011;60603;52.548;13.420;2024-01-11T11:46:40;22.98;;;8.95;;
72573;SDS011;60603;52.548;13.420;2024-01-11T11:49:08;24.10;;;10.38;;
72573;SDS011;60603;52.548;13.420;2024-01-11T11:51:36;22.90;;;9.02;;
72573;SDS011;60603;52.548;13.420;2024-01-11T11:54:05;25.25;;;10.32;;
72573;SDS011;60603;52.548;13.420;2024-01-11T11:56:36;21.40;;;8.30;;
72573;SDS011;60603;52.548;13.420;2024-01-11T11:59:04;26.35;;;10.18;;
72573;SDS011;60603;52.548;13.420;2024-01-11T12:01:31;23.83;;;9.23;;
72573;SDS011;60603;52.548;13.420;2024-01-11T12:03:59;23.33;;;9.82;;
72573;SDS011;60603;52.548;13.420;2024-01-11T12:06:25;24.40;;;9.68;;
72573;SDS011;60603;52.548;13.420;2024-01-11T12:08:55;23.90;;;9.73;;
72573;SDS011;60603;52.548;13.420;2024-01-11T12:11:24;22.27;;;9.43;;
72573;SDS011;60603;52.548;13.420;2024-01-11T12:13:51;28.17;;;10.10;;
72573;SDS011;60603;52.548;13.420;2024-01-11T12:16:20;28.05;;;11.20;;
72573;SDS011;60603;52.548;13.420;2024-01-11T12:18:48;23.77;;;9.30;;
72573;SDS011;60603;52.548;13.420;2024-01-11T12:21:16;28.90;;;11.18;;
72573;SDS011;60603;52.548;13.420;2024-01-11T12:23:44;27.00;;;10.27;;
72573;SDS011;60603;52.548;13.420;2024-01-11T12:26:12;24.42;;;10.07;;
72573;SDS011;60603;52.548;13.420;2024-01-11T12:28:42;28.30;;;10.52;;
72573;SDS011;60603;52.548;13.420;2024-01-11T12:31:11;26.85;;;11.40;;
72573;SDS011;60603;52.548;13.420;2024-01-11T12:33:39;29.48;;;11.27;;
72573;SDS011;60603;52.548;13.420;2024-01-11T12:36:08;28.35;;;10.25;;
72573;SDS011;60603;52.548;13.420;2024-01-11T12:38:36;26.52;;;9.90;;
72573;SDS011;60603;52.548;13.420;2024-01-11T12:41:03;28.23;;;10.90;;
72573;SDS011;60603;52.548;13.420;2024-01-11T12:43:31;23.70;;;10.38;;
72573;SDS011;60603;52.548;13.420;2024-01-11T12:46:01;27.77;;;10.05;;
72573;SDS011;60603;52.548;13.420;2024-01-11T12:48:29;23.48;;;9.50;;
72573;SDS011;60603;52.548;13.420;2024-01-11T12:50:57;27.05;;;9.93;;
72573;SDS011;60603;52.548;13.420;2024-01-11T12:53:40;22.92;;;9.23;;
72573;SDS011;60603;52.548;13.420;2024-01-11T12:56:07;23.00;;;9.52;;
72573;SDS011;60603;52.548;13.420;2024-01-11T12:58:36;23.00;;;9.20;;
72573;SDS011;60603;52.548;13.420;2024-01-11T13:01:04;19.38;;;9.02;;
72573;SDS011;60603;52.548;13.420;2024-01-11T13:03:35;20.63;;;8.10;;
72573;SDS011;60603;52.548;13.420;2024-01-11T13:06:04;25.30;;;8.90;;
72573;SDS011;60603;52.548;13.420;2024-01-11T13:08:36;18.67;;;7.97;;
72573;SDS011;60603;52.548;13.420;2024-01-11T13:11:06;21.77;;;8.77;;
72573;SDS011;60603;52.548;13.420;2024-01-11T13:13:36;20.48;;;8.63;;
72573;SDS011;60603;52.548;13.420;2024-01-11T13:16:03;19.27;;;7.70;;
72573;SDS011;60603;52.548;13.420;2024-01-11T13:18:38;22.67;;;9.07;;
72573;SDS011;60603;52.548;13.420;2024-01-11T13:21:05;20.13;;;8.48;;
72573;SDS011;60603;52.548;13.420;2024-01-11T13:23:36;23.67;;;8.43;;
72573;SDS011;60603;52.548;13.420;2024-01-11T13:26:05;21.65;;;8.30;;
72573;SDS011;60603;52.548;13.420;2024-01-11T13:28:33;21.75;;;8.70;;
72573;SDS011;60603;52.548;13.420;2024-01-11T13:31:01;23.92;;;10.02;;
72573;SDS011;60603;52.548;13.420;2024-01-11T13:33:29;22.92;;;9.40;;
72573;SDS011;60603;52.548;13.420;2024-01-11T13:35:56;21.35;;;8.50;;
72573;SDS011;60603;52.548;13.420;2024-01-11T13:38:24;21.00;;;9.27;;
72573;SDS011;60603;52.548;13.420;2024-01-11T13:40:51;21.92;;;8.73;;
72573;SDS011;60603;52.548;13.420;2024-01-11T13:43:19;24.80;;;8.65;;
72573;SDS011;60603;52.548;13.420;2024-01-11T13:45:46;24.60;;;8.43;;
72573;SDS011;60603;52.548;13.420;2024-01-11T13:48:13;24.83;;;9.73;;
72573;SDS011;60603;52.548;13.420;2024-01-11T13:50:40;24.10;;;8.25;;
72573;SDS011;60603;52.548;13.420;2024-01-11T13:53:08;22.85;;;9.00;;
72573;SDS011;60603;52.548;13.420;2024-01-11T13:55:35;25.65;;;8.45;;
72573;SDS011;60603;52.548;13.420;2024-01-11T13:58:06;19.80;;;7.65;;
72573;SDS011;60603;52.548;13.420;2024-01-11T14:00:33;22.42;;;9.10;;
72573;SDS011;60603;52.548;13.420;2024-01-11T14:03:01;20.77;;;7.93;;
72573;SDS011;60603;52.548;13.420;2024-01-11T14:05:30;18.88;;;7.75;;
72573;SDS011;60603;52.548;13.420;2024-01-11T14:07:58;23.02;;;8.30;;
72573;SDS011;60603;52.548;13.420;2024-01-11T14:10:26;20.83;;;7.70;;
72573;SDS011;60603;52.548;13.420;2024-01-11T14:12:55;22.10;;;8.55;;
72573;SDS011;60603;52.548;13.420;2024-01-11T14:15:22;18.88;;;7.82;;
72573;SDS011;60603;52.548;13.420;2024-01-11T14:17:51;17.85;;;8.15;;
72573;SDS011;60603;52.548;13.420;2024-01-11T14:20:18;22.65;;;8.07;;
72573;SDS011;60603;52.548;13.420;2024-01-11T14:22:46;16.77;;;6.45;;